Time;durP1;ratioP1;P1;durP2;ratioP2;P2;SDS_P1;SDS_P2;PMS_P1;PMS_P2;Temp;Humidity;BMP_temperature;BMP_pressure;BME280_temperature;BME280_humidity;BME280_pressure;Samples;Min_cycle;Max_cycle;Signal;HPM_P1;HPM_P2
2022/10/01 00:00:22;;;;;;;4.90;3.30;;;;;;;;;;5003796;28;20490;-75
2022/10/01 00:02:48;;;;;;;5.07;3.38;;;;;;;;;;5002809;28;20035;-75
2022/10/01 00:05:13;;;;;;;6.75;3.50;;;;;;;;;;5011238;28;20041;-77
2022/10/01 00:07:41;;;;;;;5.00;3.40;;;;;;;;;;5005505;28;20028;-75
2022/10/01 00:10:07;;;;;;;5.13;3.40;;;;;;;;;;5007348;28;20025;-75
2022/10/01 00:12:33;;;;;;;5.43;3.25;;;;;;;;;;5007093;28;20029;-76
2022/10/01 00:14:59;;;;;;;4.10;3.00;;;;;;;;;;5007406;28;20041;-75
2022/10/01 00:17:24;;;;;;;5.88;3.35;;;;;;;;;;5010718;28;20032;-74
2022/10/01 00:19:50;;;;;;;5.85;3.70;;;;;;;;;;5000329;28;20029;-78
2022/10/01 00:22:15;;;;;;;5.78;3.42;;;;;;;;;;5001446;28;20050;-76
2022/10/01 00:24:41;;;;;;;4.10;2.80;;;;;;;;;;5005413;28;20033;-74
2022/10/01 00:27:06;;;;;;;4.78;3.33;;;;;;;;;;5002285;28;20041;-74
2022/10/01 00:29:31;;;;;;;5.47;3.13;;;;;;;;;;4994460;28;20033;-75
2022/10/01 00:31:57;;;;;;;4.50;2.95;;;;;;;;;;4999027;28;20371;-75
2022/10/01 00:34:22;;;;;;;4.10;2.95;;;;;;;;;;4999439;28;20113;-74
2022/10/01 00:36:48;;;;;;;5.90;3.28;;;;;;;;;;5000003;28;20505;-76
2022/10/01 00:39:14;;;;;;;4.82;3.10;;;;;;;;;;4999124;28;20033;-77
2022/10/01 00:41:40;;;;;;;4.70;3.30;;;;;;;;;;5001521;28;20121;-75
2022/10/01 00:44:31;;;;;;;4.20;3.17;;;;;;;;;;4996689;28;20045;-75
2022/10/01 00:47:07;;;;;;;6.18;3.55;;;;;;;;;;5006762;28;20064;-77
2022/10/01 00:49:36;;;;;;;4.57;3.28;;;;;;;;;;5004131;28;20469;-77
2022/10/01 00:52:05;;;;;;;5.93;3.95;;;;;;;;;;5029235;28;20386;-75
2022/10/01 00:54:40;;;;;;;5.28;3.30;;;;;;;;;;5012143;28;20428;-75
2022/10/01 00:57:06;;;;;;;6.20;3.38;;;;;;;;;;4998206;28;20040;-77
2022/10/01 00:59:33;;;;;;;4.85;3.40;;;;;;;;;;4992343;28;20038;-75
2022/10/01 01:01:58;;;;;;;5.28;3.75;;;;;;;;;;4999197;28;20033;-77
2022/10/01 01:04:24;;;;;;;5.85;3.92;;;;;;;;;;5005951;28;20068;-75
2022/10/01 01:06:57;;;;;;;5.88;3.65;;;;;;;;;;5037502;28;20441;-77
2022/10/01 01:09:26;;;;;;;6.78;3.42;;;;;;;;;;4999849;28;20128;-75
2022/10/01 01:12:15;;;;;;;5.80;3.55;;;;;;;;;;5000447;28;20022;-75
2022/10/01 01:15:13;;;;;;;5.35;3.40;;;;;;;;;;4995098;28;21118;-75
2022/10/01 01:17:57;;;;;;;4.05;2.83;;;;;;;;;;5004585;28;20087;-75
2022/10/01 01:20:28;;;;;;;5.57;3.13;;;;;;;;;;4994199;28;20105;-75
2022/10/01 01:23:09;;;;;;;4.28;3.05;;;;;;;;;;5005646;28;20079;-75
2022/10/01 01:25:46;;;;;;;4.50;2.70;;;;;;;;;;5015638;28;20034;-75
2022/10/01 01:28:19;;;;;;;4.03;2.75;;;;;;;;;;4997566;28;20026;-75
2022/10/01 01:30:48;;;;;;;4.70;2.60;;;;;;;;;;4996484;28;20066;-75
2022/10/01 01:33:20;;;;;;;5.30;3.08;;;;;;;;;;5001184;28;20042;-75
2022/10/01 01:35:53;;;;;;;3.60;2.45;;;;;;;;;;5004443;28;20025;-75
2022/10/01 01:38:24;;;;;;;4.75;2.88;;;;;;;;;;5007096;28;20470;-75
2022/10/01 01:40:54;;;;;;;3.92;2.33;;;;;;;;;;4985769;28;20939;-77
2022/10/01 01:43:24;;;;;;;4.43;2.70;;;;;;;;;;5003796;28;20107;-75
2022/10/01 01:45:53;;;;;;;4.22;2.55;;;;;;;;;;4999390;28;20083;-76
2022/10/01 01:48:21;;;;;;;3.33;2.28;;;;;;;;;;5029162;28;20033;-76
2022/10/01 01:50:54;;;;;;;4.53;2.47;;;;;;;;;;5034024;28;20025;-76
2022/10/01 01:53:20;;;;;;;3.25;2.05;;;;;;;;;;4995119;28;20031;-76
2022/10/01 01:55:48;;;;;;;4.72;2.42;;;;;;;;;;5004100;28;20406;-76
2022/10/01 01:58:15;;;;;;;4.00;2.47;;;;;;;;;;5012138;28;20033;-76
2022/10/01 02:00:41;;;;;;;3.80;2.33;;;;;;;;;;5004151;28;20037;-78
2022/10/01 02:03:08;;;;;;;3.75;2.25;;;;;;;;;;4997756;28;20026;-76
2022/10/01 02:05:42;;;;;;;4.00;2.00;;;;;;;;;;5001138;28;20394;-75
2022/10/01 02:08:26;;;;;;;2.70;1.75;;;;;;;;;;4998646;28;20368;-77
2022/10/01 02:11:20;;;;;;;2.75;1.80;;;;;;;;;;5014813;28;20430;-77
2022/10/01 02:14:04;;;;;;;;;;;;;;;;;;4999171;28;20029;-76
2022/10/01 02:16:50;;;;;;;5.32;1.67;;;;;;;;;;5001959;28;19996;-75
2022/10/01 02:19:44;;;;;;;3.45;1.77;;;;;;;;;;5002137;28;20421;-75
2022/10/01 02:22:14;;;;;;;2.80;1.67;;;;;;;;;;4995826;28;20038;-78
2022/10/01 02:24:43;;;;;;;2.90;1.60;;;;;;;;;;5031587;28;20022;-76
2022/10/01 02:27:19;;;;;;;2.72;1.75;;;;;;;;;;4998401;28;20080;-75
2022/10/01 02:29:46;;;;;;;2.60;1.70;;;;;;;;;;5003418;28;20572;-75
2022/10/01 02:32:13;;;;;;;2.58;1.50;;;;;;;;;;5031320;28;20021;-77
2022/10/01 02:34:39;;;;;;;1.90;1.27;;;;;;;;;;5003041;28;20485;-76
2022/10/01 02:37:09;;;;;;;2.50;1.35;;;;;;;;;;5003298;28;20593;-77
2022/10/01 02:39:36;;;;;;;2.40;1.30;;;;;;;;;;5003295;28;20091;-77
2022/10/01 02:42:03;;;;;;;2.80;1.40;;;;;;;;;;5005853;28;20021;-78
2022/10/01 02:44:39;;;;;;;2.10;1.40;;;;;;;;;;5014480;28;20080;-77
2022/10/01 02:47:10;;;;;;;1.67;1.20;;;;;;;;;;5020821;28;20104;-76
2022/10/01 02:49:38;;;;;;;1.77;1.15;;;;;;;;;;5004984;28;20037;-75
2022/10/01 02:52:22;;;;;;;1.92;1.30;;;;;;;;;;5002774;28;20392;-76
2022/10/01 02:54:55;;;;;;;1.67;1.17;;;;;;;;;;5005176;28;20157;-75
2022/10/01 02:57:22;;;;;;;2.50;1.45;;;;;;;;;;5004404;28;20034;-75
2022/10/01 02:59:48;;;;;;;2.85;1.17;;;;;;;;;;5007238;28;20735;-75
2022/10/01 03:02:13;;;;;;;2.60;1.40;;;;;;;;;;5002908;28;20490;-77
2022/10/01 03:04:39;;;;;;;2.40;1.05;;;;;;;;;;5005736;28;20032;-75
2022/10/01 03:07:04;;;;;;;1.48;1.00;;;;;;;;;;5001552;28;20385;-77
2022/10/01 03:09:31;;;;;;;2.75;1.00;;;;;;;;;;4997049;28;20026;-76
2022/10/01 03:11:57;;;;;;;1.27;0.88;;;;;;;;;;5011380;28;20026;-76
2022/10/01 03:14:23;;;;;;;1.80;1.20;;;;;;;;;;5035566;28;20030;-75
2022/10/01 03:16:52;;;;;;;1.77;0.95;;;;;;;;;;5006673;28;20034;-75
2022/10/01 03:19:18;;;;;;;1.95;1.10;;;;;;;;;;5001617;28;20030;-76
2022/10/01 03:21:44;;;;;;;1.13;0.90;;;;;;;;;;5003994;28;20107;-76
2022/10/01 03:24:09;;;;;;;1.60;1.00;;;;;;;;;;5003723;28;20025;-75
2022/10/01 03:26:35;;;;;;;1.38;0.80;;;;;;;;;;5005094;28;20037;-76
2022/10/01 03:29:01;;;;;;;1.35;0.90;;;;;;;;;;5004383;28;20034;-75
2022/10/01 03:31:26;;;;;;;2.28;0.93;;;;;;;;;;5004956;28;20124;-75
2022/10/01 03:33:51;;;;;;;2.55;1.10;;;;;;;;;;5009009;28;20105;-75
2022/10/01 03:36:17;;;;;;;1.30;0.82;;;;;;;;;;5003574;28;20034;-76
2022/10/01 03:38:42;;;;;;;1.80;0.98;;;;;;;;;;4993100;28;20061;-75
2022/10/01 03:41:08;;;;;;;1.80;0.82;;;;;;;;;;5004466;28;20042;-75
2022/10/01 03:43:33;;;;;;;1.27;0.82;;;;;;;;;;5003535;28;20038;-76
2022/10/01 03:46:00;;;;;;;1.00;0.80;;;;;;;;;;5002862;28;20022;-76
2022/10/01 03:48:26;;;;;;;1.75;1.10;;;;;;;;;;5002190;28;20117;-79
2022/10/01 03:50:56;;;;;;;1.58;0.93;;;;;;;;;;5037749;28;20029;-76
2022/10/01 03:53:25;;;;;;;1.48;0.93;;;;;;;;;;5004275;28;20022;-76
2022/10/01 03:55:50;;;;;;;1.20;0.88;;;;;;;;;;4997763;28;20047;-76
2022/10/01 03:58:17;;;;;;;1.77;0.98;;;;;;;;;;5006964;28;20090;-78
2022/10/01 04:00:43;;;;;;;1.40;0.80;;;;;;;;;;5003299;28;20429;-75
2022/10/01 04:03:09;;;;;;;1.65;0.98;;;;;;;;;;4989304;28;20033;-75
2022/10/01 04:05:35;;;;;;;1.83;0.85;;;;;;;;;;5004690;28;20026;-75
2022/10/01 04:08:00;;;;;;;1.05;0.80;;;;;;;;;;4999994;28;20025;-76
2022/10/01 04:10:26;;;;;;;1.67;0.90;;;;;;;;;;5001742;28;20025;-76
2022/10/01 04:12:53;;;;;;;1.50;0.98;;;;;;;;;;5003120;28;20022;-75
2022/10/01 04:15:18;;;;;;;1.83;0.73;;;;;;;;;;4996837;28;20034;-77
2022/10/01 04:17:44;;;;;;;1.20;0.77;;;;;;;;;;5002410;28;20033;-76
2022/10/01 04:20:09;;;;;;;1.20;0.75;;;;;;;;;;4998465;28;20100;-76
2022/10/01 04:22:38;;;;;;;2.85;0.90;;;;;;;;;;5006226;28;20073;-75
2022/10/01 04:25:04;;;;;;;1.75;0.93;;;;;;;;;;5006565;28;20390;-76
2022/10/01 04:27:30;;;;;;;3.90;1.08;;;;;;;;;;5004439;28;20036;-76
2022/10/01 04:29:55;;;;;;;2.05;0.85;;;;;;;;;;5005409;28;20079;-76
2022/10/01 04:32:21;;;;;;;1.20;0.80;;;;;;;;;;4999223;28;20385;-77
2022/10/01 04:34:52;;;;;;;1.15;0.80;;;;;;;;;;5011506;28;20026;-76
2022/10/01 04:37:19;;;;;;;1.88;0.88;;;;;;;;;;4999520;28;20033;-79
2022/10/01 04:39:45;;;;;;;1.83;0.88;;;;;;;;;;5006245;28;20026;-78
2022/10/01 04:42:12;;;;;;;1.38;0.90;;;;;;;;;;4997737;28;20085;-80
2022/10/01 04:44:37;;;;;;;1.85;1.00;;;;;;;;;;5001798;28;20018;-76
2022/10/01 04:47:03;;;;;;;1.10;0.77;;;;;;;;;;5000571;28;20028;-77
2022/10/01 04:49:30;;;;;;;1.42;0.90;;;;;;;;;;5002065;28;20398;-75
2022/10/01 04:51:55;;;;;;;1.55;0.90;;;;;;;;;;5002235;28;20429;-75
2022/10/01 04:54:20;;;;;;;1.30;1.00;;;;;;;;;;5002271;28;20037;-79
2022/10/01 04:56:46;;;;;;;1.35;1.00;;;;;;;;;;5028458;28;20505;-76
2022/10/01 04:59:11;;;;;;;1.20;0.80;;;;;;;;;;5005705;28;20402;-76
2022/10/01 05:01:36;;;;;;;2.53;0.90;;;;;;;;;;5002861;28;20114;-75
2022/10/01 05:04:02;;;;;;;1.02;0.90;;;;;;;;;;5001667;28;20030;-77
2022/10/01 05:06:27;;;;;;;2.03;1.08;;;;;;;;;;4999158;28;20445;-76
2022/10/01 05:08:52;;;;;;;1.55;1.02;;;;;;;;;;4999485;28;20041;-77
2022/10/01 05:11:18;;;;;;;2.10;1.00;;;;;;;;;;5000683;28;20037;-80
2022/10/01 05:13:43;;;;;;;1.52;1.13;;;;;;;;;;5001463;28;20333;-76
2022/10/01 05:16:10;;;;;;;1.95;1.15;;;;;;;;;;5007656;28;20061;-79
2022/10/01 05:18:36;;;;;;;4.80;1.50;;;;;;;;;;4999570;28;20021;-76
2022/10/01 05:21:06;;;;;;;1.60;1.08;;;;;;;;;;5003451;28;20071;-76
2022/10/01 05:23:32;;;;;;;1.95;1.30;;;;;;;;;;5011534;28;20474;-76
2022/10/01 05:25:57;;;;;;;2.15;1.08;;;;;;;;;;5000638;28;20067;-77
2022/10/01 05:28:23;;;;;;;2.33;1.27;;;;;;;;;;4997551;28;20030;-77
2022/10/01 05:30:49;;;;;;;2.00;1.35;;;;;;;;;;4994690;28;20125;-77
2022/10/01 05:33:15;;;;;;;2.28;1.60;;;;;;;;;;5015466;28;20047;-76
2022/10/01 05:35:41;;;;;;;4.53;2.13;;;;;;;;;;5002483;28;20034;-75
2022/10/01 05:38:06;;;;;;;2.63;1.90;;;;;;;;;;5031321;28;20579;-76
2022/10/01 05:40:32;;;;;;;3.72;1.98;;;;;;;;;;5000791;28;20026;-79
2022/10/01 05:42:59;;;;;;;3.17;2.40;;;;;;;;;;4999175;28;20073;-78
2022/10/01 05:45:26;;;;;;;4.28;2.13;;;;;;;;;;4999547;28;20029;-76
2022/10/01 05:48:00;;;;;;;3.03;2.28;;;;;;;;;;4996859;28;20033;-78
2022/10/01 05:50:29;;;;;;;3.70;2.50;;;;;;;;;;5001390;28;20037;-77
2022/10/01 05:52:54;;;;;;;4.60;2.70;;;;;;;;;;5000507;28;20116;-77
2022/10/01 05:55:21;;;;;;;3.92;2.78;;;;;;;;;;5005511;28;20113;-79
2022/10/01 05:57:57;;;;;;;5.05;3.28;;;;;;;;;;5002242;28;20485;-76
2022/10/01 06:00:23;;;;;;;5.32;3.33;;;;;;;;;;5000155;28;20108;-77
2022/10/01 06:02:50;;;;;;;5.13;3.28;;;;;;;;;;5004729;28;20429;-76
2022/10/01 06:05:16;;;;;;;4.03;3.35;;;;;;;;;;5008119;28;20018;-76
2022/10/01 06:07:41;;;;;;;8.30;3.65;;;;;;;;;;5001922;28;20025;-77
2022/10/01 06:10:08;;;;;;;4.85;3.50;;;;;;;;;;5003619;28;20060;-79
2022/10/01 06:12:33;;;;;;;4.60;3.50;;;;;;;;;;5017268;28;20033;-78
2022/10/01 06:14:58;;;;;;;4.88;3.63;;;;;;;;;;4997056;28;20030;-77
2022/10/01 06:17:24;;;;;;;4.72;3.70;;;;;;;;;;4999323;28;20121;-79
2022/10/01 06:19:50;;;;;;;4.88;3.70;;;;;;;;;;5001169;28;20060;-77
2022/10/01 06:22:16;;;;;;;5.20;3.72;;;;;;;;;;4998365;28;20046;-77
2022/10/01 06:24:41;;;;;;;4.60;3.80;;;;;;;;;;5001685;28;20044;-77
2022/10/01 06:27:07;;;;;;;5.07;3.90;;;;;;;;;;5000639;28;20030;-77
2022/10/01 06:29:32;;;;;;;4.72;3.63;;;;;;;;;;4999461;28;20034;-77
2022/10/01 06:31:57;;;;;;;5.55;4.18;;;;;;;;;;5002754;28;20022;-76
2022/10/01 06:34:25;;;;;;;6.00;4.20;;;;;;;;;;5002800;28;20367;-77
2022/10/01 06:36:50;;;;;;;6.00;4.18;;;;;;;;;;5028199;28;20030;-76
2022/10/01 06:39:16;;;;;;;6.30;4.82;;;;;;;;;;4998999;28;20029;-76
2022/10/01 06:41:42;;;;;;;5.75;4.95;;;;;;;;;;4999113;28;20415;-78
2022/10/01 06:44:08;;;;;;;6.57;4.63;;;;;;;;;;4998732;28;20375;-81
2022/10/01 06:46:33;;;;;;;7.22;5.15;;;;;;;;;;5007514;28;20026;-77
2022/10/01 06:48:59;;;;;;;6.88;5.10;;;;;;;;;;5000578;28;20018;-76
2022/10/01 06:54:09;;;;;;;6.35;5.10;;;;;;;;;;5006350;28;20036;-77
2022/10/01 06:56:35;;;;;;;7.53;4.97;;;;;;;;;;5030966;28;20022;-76
2022/10/01 06:59:01;;;;;;;7.15;5.05;;;;;;;;;;5033072;28;20028;-76
2022/10/01 07:01:27;;;;;;;9.45;5.10;;;;;;;;;;5001578;28;20034;-77
2022/10/01 07:03:53;;;;;;;6.85;5.03;;;;;;;;;;4998518;28;20033;-76
2022/10/01 07:06:18;;;;;;;6.25;5.20;;;;;;;;;;4993617;28;20018;-76
2022/10/01 07:08:47;;;;;;;6.90;5.75;;;;;;;;;;4999799;28;20200;-77
2022/10/01 07:11:13;;;;;;;7.00;5.60;;;;;;;;;;5004576;28;20495;-76
2022/10/01 07:13:38;;;;;;;8.23;5.68;;;;;;;;;;5001016;28;20033;-78
2022/10/01 07:16:04;;;;;;;7.63;5.47;;;;;;;;;;4996232;28;20065;-77
2022/10/01 07:18:30;;;;;;;6.50;5.80;;;;;;;;;;4999324;28;20478;-76
2022/10/01 07:20:56;;;;;;;7.50;5.13;;;;;;;;;;5001631;28;20030;-77
2022/10/01 07:23:23;;;;;;;7.85;5.68;;;;;;;;;;5003285;28;20083;-76
2022/10/01 07:25:49;;;;;;;6.47;5.55;;;;;;;;;;5003341;28;20079;-79
2022/10/01 07:28:18;;;;;;;7.07;5.88;;;;;;;;;;5004019;28;20512;-77
2022/10/01 07:31:02;;;;;;;8.82;6.22;;;;;;;;;;4992146;28;20107;-77
2022/10/01 07:33:27;;;;;;;8.57;6.20;;;;;;;;;;4998929;28;20034;-78
2022/10/01 07:35:52;;;;;;;7.15;5.93;;;;;;;;;;4997240;28;20512;-77
2022/10/01 07:38:18;;;;;;;7.18;6.10;;;;;;;;;;5000448;28;20025;-77
2022/10/01 07:40:43;;;;;;;7.85;6.10;;;;;;;;;;4995577;28;20034;-77
2022/10/01 07:43:09;;;;;;;7.30;6.00;;;;;;;;;;4997826;28;20040;-79
2022/10/01 07:45:34;;;;;;;7.72;6.00;;;;;;;;;;4994953;28;20026;-78
2022/10/01 07:48:01;;;;;;;8.02;6.10;;;;;;;;;;4997154;28;20034;-76
2022/10/01 07:50:31;;;;;;;9.15;6.47;;;;;;;;;;4997566;28;20367;-78
2022/10/01 07:52:57;;;;;;;8.93;6.47;;;;;;;;;;4995197;28;20030;-78
2022/10/01 07:55:25;;;;;;;9.35;6.57;;;;;;;;;;4995697;28;20745;-79
2022/10/01 07:57:56;;;;;;;7.70;6.32;;;;;;;;;;4996126;28;20030;-76
2022/10/01 08:00:23;;;;;;;8.85;6.28;;;;;;;;;;4999579;28;20037;-78
2022/10/01 08:02:52;;;;;;;8.23;6.30;;;;;;;;;;5014819;28;20034;-78
2022/10/01 08:05:19;;;;;;;9.88;6.53;;;;;;;;;;4999452;28;20628;-76
2022/10/01 08:07:46;;;;;;;9.00;6.65;;;;;;;;;;5003618;28;20056;-77
2022/10/01 08:10:16;;;;;;;10.27;6.00;;;;;;;;;;5001982;28;20064;-77
2022/10/01 08:12:42;;;;;;;7.47;5.40;;;;;;;;;;5013557;28;20032;-78
2022/10/01 08:15:13;;;;;;;7.45;5.28;;;;;;;;;;4998999;28;20027;-76
2022/10/01 08:17:38;;;;;;;11.60;5.18;;;;;;;;;;5003611;28;20377;-78
2022/10/01 08:20:05;;;;;;;8.35;5.90;;;;;;;;;;5001581;28;20030;-77
2022/10/01 08:22:31;;;;;;;6.22;5.15;;;;;;;;;;5003177;28;20170;-77
2022/10/01 08:24:59;;;;;;;6.75;5.18;;;;;;;;;;5001811;28;20505;-77
2022/10/01 08:27:25;;;;;;;7.28;4.70;;;;;;;;;;4999895;28;20029;-75
2022/10/01 08:29:51;;;;;;;8.43;4.63;;;;;;;;;;5005237;28;20032;-76
2022/10/01 08:32:16;;;;;;;6.45;4.45;;;;;;;;;;5001142;28;20042;-77
2022/10/01 08:34:42;;;;;;;5.55;3.97;;;;;;;;;;5034072;28;20514;-76
2022/10/01 08:37:07;;;;;;;5.68;3.83;;;;;;;;;;5002470;28;20050;-80
2022/10/01 08:39:33;;;;;;;6.32;3.65;;;;;;;;;;4996199;28;20101;-76
2022/10/01 08:42:23;;;;;;;4.63;2.78;;;;;;;;;;5000098;28;20107;-78
2022/10/01 08:44:50;;;;;;;4.80;2.58;;;;;;;;;;5001538;28;20026;-76
2022/10/01 08:47:30;;;;;;;4.32;2.75;;;;;;;;;;5001997;28;21978;-77
2022/10/01 08:50:09;;;;;;;6.00;2.80;;;;;;;;;;5027146;28;21782;-77
2022/10/01 08:52:47;;;;;;;5.03;2.53;;;;;;;;;;4992134;28;20059;-77
2022/10/01 08:55:18;;;;;;;5.30;2.40;;;;;;;;;;5001793;28;20034;-77
2022/10/01 08:58:05;;;;;;;3.72;2.33;;;;;;;;;;4999495;28;20405;-78
2022/10/01 09:00:34;;;;;;;4.13;2.38;;;;;;;;;;5000298;28;20054;-77
2022/10/01 09:03:05;;;;;;;4.80;2.20;;;;;;;;;;5004614;28;20542;-79
2022/10/01 09:05:39;;;;;;;4.82;1.75;;;;;;;;;;5005690;28;20084;-75
2022/10/01 09:08:08;;;;;;;2.72;1.70;;;;;;;;;;4995257;28;20045;-77
2022/10/01 09:10:43;;;;;;;4.40;1.75;;;;;;;;;;5006684;28;20029;-77
2022/10/01 09:13:40;;;;;;;3.67;1.95;;;;;;;;;;5031589;28;20048;-78
2022/10/01 09:16:34;;;;;;;6.30;2.08;;;;;;;;;;4994682;28;20038;-75
2022/10/01 09:19:14;;;;;;;4.90;2.17;;;;;;;;;;4993278;28;20030;-77
2022/10/01 09:21:55;;;;;;;3.88;2.40;;;;;;;;;;5020652;28;20054;-77
2022/10/01 09:24:40;;;;;;;5.85;2.70;;;;;;;;;;4999404;28;20609;-77
2022/10/01 09:27:24;;;;;;;6.90;2.83;;;;;;;;;;4998675;28;20062;-79
2022/10/01 09:30:01;;;;;;;3.65;2.40;;;;;;;;;;4996602;28;20029;-77
2022/10/01 09:32:41;;;;;;;6.20;3.58;;;;;;;;;;5030567;28;20041;-76
2022/10/01 09:35:20;;;;;;;10.18;3.28;;;;;;;;;;4996771;28;20057;-77
2022/10/01 09:37:56;;;;;;;9.88;3.40;;;;;;;;;;5003891;28;20390;-77
2022/10/01 09:40:44;;;;;;;6.57;3.17;;;;;;;;;;4998963;28;20533;-76
2022/10/01 09:43:10;;;;;;;7.07;2.78;;;;;;;;;;5002916;28;20438;-76
2022/10/01 09:45:37;;;;;;;7.35;2.42;;;;;;;;;;4996804;28;20022;-78
2022/10/01 09:48:24;;;;;;;7.72;1.90;;;;;;;;;;5002350;28;20056;-77
2022/10/01 09:50:57;;;;;;;5.07;1.90;;;;;;;;;;5007893;28;20026;-77
2022/10/01 09:53:34;;;;;;;7.00;2.00;;;;;;;;;;5036216;28;20029;-77
2022/10/01 09:56:09;;;;;;;7.18;2.10;;;;;;;;;;4999724;28;20034;-76
2022/10/01 09:58:38;;;;;;;9.75;2.10;;;;;;;;;;5031888;28;20356;-77
2022/10/01 10:01:17;;;;;;;7.63;2.00;;;;;;;;;;4998317;28;20437;-77
2022/10/01 10:04:08;;;;;;;7.38;2.15;;;;;;;;;;4996749;28;20022;-79
2022/10/01 10:06:33;;;;;;;6.18;1.98;;;;;;;;;;4997166;28;20376;-79
2022/10/01 10:09:00;;;;;;;4.57;1.83;;;;;;;;;;4991948;28;20372;-77
2022/10/01 10:11:29;;;;;;;7.10;1.40;;;;;;;;;;4984929;28;20614;-79
2022/10/01 10:14:03;;;;;;;7.45;1.70;;;;;;;;;;4991136;28;20508;-80
2022/10/01 10:16:36;;;;;;;7.90;1.40;;;;;;;;;;4998346;28;20033;-78
2022/10/01 10:19:14;;;;;;;4.50;1.00;;;;;;;;;;5000023;28;20088;-77
2022/10/01 10:21:50;;;;;;;5.88;1.30;;;;;;;;;;4997124;28;20049;-77
2022/10/01 10:24:35;;;;;;;4.65;1.20;;;;;;;;;;4995514;28;20037;-77
2022/10/01 10:27:04;;;;;;;9.15;1.50;;;;;;;;;;4999355;28;20780;-78
2022/10/01 10:29:32;;;;;;;11.80;1.65;;;;;;;;;;4997246;28;20486;-77
2022/10/01 10:32:02;;;;;;;7.88;1.20;;;;;;;;;;4999048;28;20485;-81
2022/10/01 10:34:39;;;;;;;8.43;1.38;;;;;;;;;;5000092;28;20037;-77
2022/10/01 10:37:13;;;;;;;5.13;1.02;;;;;;;;;;4992839;28;20834;-77
2022/10/01 10:39:40;;;;;;;6.32;1.42;;;;;;;;;;5004793;28;20087;-77
2022/10/01 10:42:07;;;;;;;9.38;1.38;;;;;;;;;;5003461;28;20417;-77
2022/10/01 10:44:37;;;;;;;4.47;0.95;;;;;;;;;;5002044;28;20032;-77
2022/10/01 10:47:12;;;;;;;8.98;1.40;;;;;;;;;;4999349;28;20155;-77
2022/10/01 10:49:54;;;;;;;7.53;1.45;;;;;;;;;;5031604;28;21424;-78
2022/10/01 10:52:29;;;;;;;8.65;1.88;;;;;;;;;;5000508;28;20036;-78
2022/10/01 10:54:57;;;;;;;7.50;1.30;;;;;;;;;;5012119;28;20038;-77
2022/10/01 10:57:26;;;;;;;5.80;1.10;;;;;;;;;;5003214;28;20030;-79
2022/10/01 11:00:22;;;;;;;6.28;0.90;;;;;;;;;;5000527;28;20036;-77
2022/10/01 11:02:56;;;;;;;6.18;1.10;;;;;;;;;;5012762;28;20604;-80
2022/10/01 11:05:39;;;;;;;4.80;1.00;;;;;;;;;;5017442;28;20450;-78
2022/10/01 11:08:07;;;;;;;9.23;1.08;;;;;;;;;;4997663;28;20030;-81
2022/10/01 11:10:54;;;;;;;9.15;1.27;;;;;;;;;;5000669;28;20479;-78
2022/10/01 11:13:38;;;;;;;7.30;1.15;;;;;;;;;;5014376;28;20560;-78
2022/10/01 11:16:23;;;;;;;4.63;1.05;;;;;;;;;;5000691;28;20348;-77
2022/10/01 11:19:20;;;;;;;3.20;0.80;;;;;;;;;;5010864;28;20038;-79
2022/10/01 11:22:05;;;;;;;7.22;1.23;;;;;;;;;;5003005;28;20529;-76
2022/10/01 11:24:44;;;;;;;7.20;1.00;;;;;;;;;;4997276;28;20721;-78
2022/10/01 11:27:26;;;;;;;4.72;0.90;;;;;;;;;;5003440;28;20029;-78
2022/10/01 11:30:08;;;;;;;8.43;1.10;;;;;;;;;;5008673;28;20065;-80
2022/10/01 11:32:44;;;;;;;3.13;0.90;;;;;;;;;;5035174;28;20029;-79
2022/10/01 11:35:25;;;;;;;6.22;1.33;;;;;;;;;;4995730;28;20390;-78
2022/10/01 11:38:26;;;;;;;8.43;1.75;;;;;;;;;;5001776;28;20188;-78
2022/10/01 11:41:08;;;;;;;5.55;1.13;;;;;;;;;;4998860;28;20041;-81
2022/10/01 11:43:50;;;;;;;6.22;1.00;;;;;;;;;;5005301;28;20541;-78
2022/10/01 11:46:37;;;;;;;5.10;1.05;;;;;;;;;;4998713;28;20057;-80
2022/10/01 11:49:33;;;;;;;7.65;1.42;;;;;;;;;;5030678;28;20524;-80
2022/10/01 11:52:31;;;;;;;5.65;1.20;;;;;;;;;;5012569;28;20037;-79
2022/10/01 12:01:04;;;;;;;5.23;1.50;;;;;;;;;;5000241;28;20041;-80
2022/10/01 12:03:37;;;;;;;9.55;1.30;;;;;;;;;;5001265;28;20275;-81
2022/10/01 12:06:08;;;;;;;7.45;1.52;;;;;;;;;;5000200;28;20034;-78
2022/10/01 12:08:37;;;;;;;4.93;1.27;;;;;;;;;;5000823;28;20033;-78
2022/10/01 12:11:15;;;;;;;7.07;0.98;;;;;;;;;;5011852;28;20045;-79
2022/10/01 12:13:46;;;;;;;6.22;1.20;;;;;;;;;;5019649;28;20040;-78
2022/10/01 12:16:36;;;;;;;7.93;1.13;;;;;;;;;;4992477;28;20034;-79
2022/10/01 12:19:09;;;;;;;7.97;1.40;;;;;;;;;;5000267;28;20018;-79
2022/10/01 12:21:56;;;;;;;6.65;1.35;;;;;;;;;;5016208;28;20042;-81
2022/10/01 12:24:27;;;;;;;7.88;1.10;;;;;;;;;;5017955;28;20037;-79
2022/10/01 12:27:25;;;;;;;5.78;1.38;;;;;;;;;;5002766;28;20505;-78
2022/10/01 12:30:01;;;;;;;4.82;0.82;;;;;;;;;;5009597;28;20564;-77
2022/10/01 12:32:45;;;;;;;4.53;1.27;;;;;;;;;;5022599;28;20026;-78
2022/10/01 12:35:26;;;;;;;9.32;1.40;;;;;;;;;;5010888;28;20117;-78
2022/10/01 12:38:02;;;;;;;4.90;1.10;;;;;;;;;;5011701;28;20066;-77
2022/10/01 12:40:42;;;;;;;3.75;0.80;;;;;;;;;;5010598;28;20021;-78
2022/10/01 12:43:19;;;;;;;3.78;1.02;;;;;;;;;;5012336;28;20113;-78
2022/10/01 12:46:09;;;;;;;6.45;1.00;;;;;;;;;;5003682;28;20620;-77
2022/10/01 12:49:02;;;;;;;4.43;1.00;;;;;;;;;;5013155;28;20479;-78
2022/10/01 12:51:30;;;;;;;6.88;1.10;;;;;;;;;;5012434;28;20029;-77
2022/10/01 12:54:09;;;;;;;4.53;1.10;;;;;;;;;;5011774;28;20034;-77
2022/10/01 12:57:02;;;;;;;6.00;1.13;;;;;;;;;;5011987;28;20029;-77
2022/10/01 12:59:30;;;;;;;5.18;1.10;;;;;;;;;;5001328;28;20107;-77
2022/10/01 13:02:01;;;;;;;4.30;1.00;;;;;;;;;;5018356;28;20033;-77
2022/10/01 13:04:56;;;;;;;3.95;0.80;;;;;;;;;;5004931;28;20029;-77
2022/10/01 13:07:45;;;;;;;9.18;1.13;;;;;;;;;;5010172;28;20490;-77
2022/10/01 13:10:42;;;;;;;5.82;0.90;;;;;;;;;;5003525;28;20026;-77
2022/10/01 13:13:16;;;;;;;8.82;1.23;;;;;;;;;;5018761;28;20398;-77
2022/10/01 13:15:46;;;;;;;7.45;1.30;;;;;;;;;;5011506;28;20465;-77
2022/10/01 13:18:29;;;;;;;14.10;2.08;;;;;;;;;;5010463;28;20022;-77
2022/10/01 13:21:28;;;;;;;7.38;1.42;;;;;;;;;;5011623;28;20524;-78
2022/10/01 13:24:03;;;;;;;9.80;1.35;;;;;;;;;;5011009;28;20515;-77
2022/10/01 13:26:39;;;;;;;7.53;1.20;;;;;;;;;;5011379;28;20033;-77
2022/10/01 13:29:33;;;;;;;5.65;1.20;;;;;;;;;;5011729;28;20033;-78
2022/10/01 13:32:20;;;;;;;7.47;1.02;;;;;;;;;;5010719;28;20029;-77
2022/10/01 13:34:45;;;;;;;6.13;1.33;;;;;;;;;;5011706;28;20060;-78
2022/10/01 13:37:36;;;;;;;7.82;1.50;;;;;;;;;;5011330;28;20540;-77
2022/10/01 13:40:03;;;;;;;6.15;1.00;;;;;;;;;;5009331;28;20026;-79
2022/10/01 13:42:37;;;;;;;6.50;1.25;;;;;;;;;;5010770;28;20466;-77
2022/10/01 13:45:06;;;;;;;5.28;1.02;;;;;;;;;;5010916;28;20032;-77
2022/10/01 13:47:33;;;;;;;6.13;1.00;;;;;;;;;;5011179;28;20026;-78
2022/10/01 13:50:02;;;;;;;5.75;1.48;;;;;;;;;;5012772;28;20446;-78
2022/10/01 13:52:30;;;;;;;5.35;0.75;;;;;;;;;;5010483;28;20496;-78
2022/10/01 13:54:57;;;;;;;3.15;0.95;;;;;;;;;;5010417;28;20032;-77
2022/10/01 13:57:27;;;;;;;5.90;0.90;;;;;;;;;;5010773;28;20466;-77
2022/10/01 14:00:04;;;;;;;5.57;0.82;;;;;;;;;;5011692;28;20057;-77
2022/10/01 14:02:36;;;;;;;2.95;0.90;;;;;;;;;;5020060;28;20034;-77
2022/10/01 14:05:16;;;;;;;6.78;1.10;;;;;;;;;;5008998;28;20022;-78
2022/10/01 14:07:45;;;;;;;5.03;0.90;;;;;;;;;;5011681;28;20034;-77
2022/10/01 14:10:14;;;;;;;7.18;1.27;;;;;;;;;;5008751;28;20021;-77
2022/10/01 14:18:14;;;;;;;4.13;1.00;;;;;;;;;;5008521;28;20030;-77
2022/10/01 14:21:05;;;;;;;6.93;1.13;;;;;;;;;;5009904;28;20533;-77
2022/10/01 14:23:39;;;;;;;6.28;1.00;;;;;;;;;;5011416;28;20038;-77
2022/10/01 14:26:33;;;;;;;5.10;0.80;;;;;;;;;;5009040;28;20046;-78
2022/10/01 14:29:06;;;;;;;5.82;1.10;;;;;;;;;;5011081;28;20389;-77
2022/10/01 14:31:38;;;;;;;5.65;0.90;;;;;;;;;;5014391;28;20029;-77
2022/10/01 14:34:28;;;;;;;7.55;1.10;;;;;;;;;;5016828;28;20042;-77
2022/10/01 14:36:54;;;;;;;3.90;0.90;;;;;;;;;;5014676;28;20033;-77
2022/10/01 14:39:25;;;;;;;4.63;0.85;;;;;;;;;;5013305;28;20029;-82
2022/10/01 14:41:52;;;;;;;5.97;0.90;;;;;;;;;;5023069;28;20026;-77
2022/10/01 14:44:33;;;;;;;5.65;0.98;;;;;;;;;;5014400;28;20026;-77
2022/10/01 14:46:59;;;;;;;10.43;1.67;;;;;;;;;;5013564;28;20041;-77
2022/10/01 14:49:31;;;;;;;6.45;0.98;;;;;;;;;;5015199;28;20034;-77
2022/10/01 14:51:59;;;;;;;6.15;1.23;;;;;;;;;;5014795;28;20116;-77
2022/10/01 14:54:26;;;;;;;6.00;0.80;;;;;;;;;;5006282;28;20490;-78
2022/10/01 14:56:52;;;;;;;8.40;1.33;;;;;;;;;;5011554;28;20108;-77
2022/10/01 14:59:31;;;;;;;5.03;1.10;;;;;;;;;;5006883;28;20033;-77
2022/10/01 15:02:00;;;;;;;8.73;0.98;;;;;;;;;;5007063;28;20084;-78
2022/10/01 15:04:26;;;;;;;4.68;0.88;;;;;;;;;;5012230;28;20025;-77
2022/10/01 15:06:51;;;;;;;7.13;1.45;;;;;;;;;;5012302;28;20057;-76
2022/10/01 15:09:18;;;;;;;6.60;0.98;;;;;;;;;;5010755;28;20371;-77
2022/10/01 15:11:47;;;;;;;7.10;1.00;;;;;;;;;;5006659;28;20030;-78
2022/10/01 15:14:20;;;;;;;7.25;1.08;;;;;;;;;;5012052;28;20176;-77
2022/10/01 15:16:45;;;;;;;5.55;1.10;;;;;;;;;;5012738;28;20475;-77
2022/10/01 15:19:18;;;;;;;4.93;1.15;;;;;;;;;;5006031;28;20038;-78
2022/10/01 15:21:49;;;;;;;4.95;0.95;;;;;;;;;;5027060;28;20081;-77
2022/10/01 15:24:21;;;;;;;5.97;1.05;;;;;;;;;;5013172;28;20041;-77